Loudville, Massachusetts
Current Conditions -  °F | °C
As of 12:53 PM on Friday 24 Oct 2014 (Local Time) from KBAF Reporting Station
Broken Clouds Broken Clouds  
Wind Chill: 56°   Ceiling: 3400
Heat Index: 56°   Visibility: 10mi
Dew Point: 41°   Wind: 18mph
Humidity: 57%   Direction: 340°NNW
Pressure: 29.74"   Gusts: NA
Location:  42.2952°N, 72.7431°W
Report Text: KBAF 241653Z 34016KT 10SM BKN034 BKN048 13/05 A2974 RMK AO2 SLP073 T01330050
Loading
Personal Weather Stations






























Interactive Weather Map
Tropical Storm Tracking
New forecast layout! Learn more

10-Day Weather Forecast

Advertisements
Track Severe Weather on mobile